Time;durP1;ratioP1;P1;durP2;ratioP2;P2;SDS_P1;SDS_P2;PMS_P1;PMS_P2;Temp;Humidity;BMP_temperature;BMP_pressure;BME280_temperature;BME280_humidity;BME280_pressure;Samples;Min_cycle;Max_cycle;Signal;HPM_P1;HPM_P2
2022/04/02 00:01:23;;;;;;;6.17;5.43;;;-0.20;99.90;;;;;;5032108;28;20820;-74
2022/04/02 00:03:50;;;;;;;11.83;5.00;;;-0.20;99.90;;;;;;5030705;28;20886;-73
2022/04/02 00:06:17;;;;;;;7.93;5.80;;;-0.20;99.90;;;;;;5031588;28;20517;-73
2022/04/02 00:08:45;;;;;;;12.83;5.23;;;-0.20;99.90;;;;;;5031156;28;21162;-73
2022/04/02 00:11:12;;;;;;;8.60;5.67;;;-0.20;99.90;;;;;;5031656;28;20545;-73
2022/04/02 00:13:39;;;;;;;8.07;5.07;;;-0.20;99.90;;;;;;5030835;28;20458;-73
2022/04/02 00:16:07;;;;;;;9.20;5.30;;;-0.20;99.90;;;;;;5030446;28;20513;-73
2022/04/02 00:18:34;;;;;;;10.23;5.50;;;-0.10;99.90;;;;;;5030809;28;20469;-73
2022/04/02 00:21:00;;;;;;;7.07;5.33;;;-0.20;99.90;;;;;;5031812;28;20449;-73
2022/04/02 00:23:43;;;;;;;7.90;5.23;;;-0.20;99.90;;;;;;5031356;28;20445;-74
2022/04/02 00:26:13;;;;;;;6.37;5.33;;;-0.20;99.90;;;;;;5031456;28;20453;-72
2022/04/02 00:28:42;;;;;;;9.30;5.10;;;-0.20;99.90;;;;;;5030582;28;20470;-73
2022/04/02 00:31:11;;;;;;;8.27;5.30;;;-0.30;99.90;;;;;;5030724;28;21129;-73
2022/04/02 00:33:39;;;;;;;7.67;5.30;;;-0.20;99.90;;;;;;5030325;28;20445;-73
2022/04/02 00:36:07;;;;;;;12.43;5.43;;;-0.30;99.90;;;;;;5031567;28;20515;-75
2022/04/02 00:38:34;;;;;;;7.40;5.30;;;-0.30;99.90;;;;;;5030899;28;20849;-73
2022/04/02 00:41:01;;;;;;;9.07;5.90;;;-0.20;99.90;;;;;;5030714;28;20533;-73
2022/04/02 00:43:31;;;;;;;5.33;4.80;;;-0.30;99.90;;;;;;5028252;28;20449;-73
2022/04/02 00:46:00;;;;;;;8.70;5.93;;;-0.40;99.90;;;;;;5030440;28;20457;-73
2022/04/02 00:48:27;;;;;;;7.73;5.80;;;-0.40;99.90;;;;;;5030642;28;21235;-73
2022/04/02 00:50:56;;;;;;;6.57;4.97;;;-0.40;99.90;;;;;;5031191;28;20461;-73
2022/04/02 00:53:24;;;;;;;7.57;5.57;;;-0.40;99.90;;;;;;5030183;28;20503;-73
2022/04/02 00:55:51;;;;;;;13.20;5.07;;;-0.40;99.90;;;;;;5030737;28;20454;-73
2022/04/02 00:58:18;;;;;;;11.80;5.70;;;-0.40;99.90;;;;;;5030609;28;20824;-73
2022/04/02 01:00:46;;;;;;;10.63;5.43;;;-0.40;99.90;;;;;;5030225;28;20484;-73
2022/04/02 01:03:16;;;;;;;6.40;5.50;;;-0.40;99.90;;;;;;5030145;28;20461;-73
2022/04/02 01:05:43;;;;;;;7.67;5.43;;;-0.40;99.90;;;;;;5030693;28;20445;-73
2022/04/02 01:08:10;;;;;;;6.57;5.13;;;-0.30;99.90;;;;;;5030317;28;20473;-75
2022/04/02 01:10:39;;;;;;;10.00;6.43;;;-0.30;99.90;;;;;;5030692;28;20572;-73
2022/04/02 01:13:07;;;;;;;8.40;5.63;;;-0.40;99.90;;;;;;5029853;28;20544;-75
2022/04/02 01:15:34;;;;;;;10.73;5.80;;;-0.40;99.90;;;;;;5030354;28;20453;-74
2022/04/02 01:18:02;;;;;;;8.10;5.87;;;-0.40;99.90;;;;;;5030399;28;20465;-74
2022/04/02 01:20:30;;;;;;;8.73;5.90;;;-0.40;99.90;;;;;;5030234;28;20504;-74
2022/04/02 01:22:59;;;;;;;7.90;5.93;;;-0.50;99.90;;;;;;5029637;28;20458;-73
2022/04/02 01:25:31;;;;;;;13.63;7.03;;;-0.50;99.90;;;;;;5030268;28;20446;-73
2022/04/02 01:27:58;;;;;;;9.10;5.03;;;-0.50;99.90;;;;;;5030170;28;20483;-73
2022/04/02 01:30:25;;;;;;;8.37;5.30;;;-0.50;99.90;;;;;;5030135;28;20527;-74
2022/04/02 01:32:52;;;;;;;8.37;4.83;;;-0.40;99.90;;;;;;5029777;28;20449;-73
2022/04/02 01:35:20;;;;;;;8.80;5.83;;;-0.50;99.90;;;;;;5029801;28;20449;-74
2022/04/02 01:37:46;;;;;;;8.43;5.50;;;-0.60;99.90;;;;;;5030169;28;20473;-73
2022/04/02 01:40:14;;;;;;;10.70;6.73;;;-0.50;99.90;;;;;;5029864;28;20481;-73
2022/04/02 01:42:42;;;;;;;15.00;5.80;;;-0.60;99.90;;;;;;5030028;28;20453;-73
2022/04/02 01:45:09;;;;;;;10.40;7.43;;;-0.60;99.90;;;;;;5029148;28;20457;-74
2022/04/02 01:47:36;;;;;;;9.17;6.30;;;-0.60;99.90;;;;;;5029494;28;20558;-73
2022/04/02 01:50:04;;;;;;;13.57;6.50;;;-0.60;99.90;;;;;;5029224;28;20453;-74
2022/04/02 01:52:31;;;;;;;10.00;6.00;;;-0.60;99.90;;;;;;5030247;28;20462;-73
2022/04/02 01:54:58;;;;;;;9.87;6.90;;;-0.50;99.90;;;;;;5029738;28;20457;-73
2022/04/02 01:57:26;;;;;;;12.30;6.60;;;-0.50;99.90;;;;;;5029860;28;20456;-74
2022/04/02 01:59:53;;;;;;;7.90;6.90;;;-0.50;99.90;;;;;;5033147;28;20488;-73
2022/04/02 02:02:20;;;;;;;9.03;7.50;;;-0.50;99.90;;;;;;5033617;28;20453;-73
2022/04/02 02:04:47;;;;;;;6.07;5.33;;;-0.30;99.90;;;;;;5033758;28;20455;-74
2022/04/02 02:07:14;;;;;;;14.63;6.63;;;-0.50;99.90;;;;;;5033950;28;20538;-73
2022/04/02 02:09:41;;;;;;;13.67;7.50;;;-0.50;99.90;;;;;;5033712;28;20515;-73
2022/04/02 02:12:08;;;;;;;10.67;6.70;;;-0.50;99.90;;;;;;5030641;28;20453;-74
2022/04/02 02:14:36;;;;;;;12.73;6.60;;;-0.50;99.90;;;;;;5033628;28;20457;-74
2022/04/02 02:17:03;;;;;;;8.50;6.17;;;-0.50;99.90;;;;;;5033139;28;20469;-73
2022/04/02 02:19:30;;;;;;;9.87;7.03;;;-0.40;99.90;;;;;;5033007;28;21241;-73
2022/04/02 02:21:57;;;;;;;10.67;6.50;;;-0.50;99.90;;;;;;5033711;28;20442;-74
2022/04/02 02:24:24;;;;;;;8.73;6.50;;;-0.50;99.90;;;;;;5033229;28;20457;-73
2022/04/02 02:26:51;;;;;;;12.00;7.40;;;-0.50;99.90;;;;;;5033583;28;20515;-73
2022/04/02 02:29:17;;;;;;;11.10;7.10;;;-0.50;99.90;;;;;;5033328;28;20548;-73
2022/04/02 02:31:45;;;;;;;8.43;6.73;;;-0.50;99.90;;;;;;5033015;28;20804;-73
2022/04/02 02:36:57;;;;;;;9.80;6.13;;;-0.50;99.90;;;;;;5033449;28;20444;-74
2022/04/02 02:39:23;;;;;;;13.20;6.73;;;-0.50;99.90;;;;;;5032837;28;20559;-73
2022/04/02 02:41:50;;;;;;;9.40;6.60;;;-0.50;99.90;;;;;;5033298;28;20461;-74
2022/04/02 02:44:17;;;;;;;12.00;7.43;;;-0.50;99.90;;;;;;5033359;28;20476;-73
2022/04/02 02:46:45;;;;;;;9.33;7.10;;;-0.50;99.90;;;;;;5032938;28;20445;-72
2022/04/02 02:49:12;;;;;;;19.53;7.30;;;-0.50;99.90;;;;;;5032237;28;20500;-73
2022/04/02 02:51:39;;;;;;;12.87;6.93;;;-0.60;99.90;;;;;;5032783;28;20457;-74
2022/04/02 02:54:06;;;;;;;12.60;6.43;;;-0.60;99.90;;;;;;5032391;28;21320;-73
2022/04/02 02:56:33;;;;;;;11.63;6.83;;;-0.50;99.90;;;;;;5033381;28;20450;-73
2022/04/02 02:59:00;;;;;;;12.37;7.50;;;-0.50;99.90;;;;;;5032615;28;20465;-73
2022/04/02 03:01:26;;;;;;;10.90;6.83;;;-0.60;99.90;;;;;;5032675;28;20485;-73
2022/04/02 03:03:54;;;;;;;9.13;7.43;;;-0.60;99.90;;;;;;5032644;28;20457;-74
2022/04/02 03:06:22;;;;;;;12.80;7.57;;;-0.60;99.90;;;;;;5030572;28;20445;-74
2022/04/02 03:08:49;;;;;;;11.37;7.77;;;-0.70;99.90;;;;;;5031691;28;20508;-73
2022/04/02 03:11:16;;;;;;;14.60;8.50;;;-0.60;99.90;;;;;;5032829;28;20492;-74
2022/04/02 03:13:44;;;;;;;11.00;8.23;;;-0.60;99.90;;;;;;5032686;28;20471;-74
2022/04/02 03:16:10;;;;;;;9.37;7.70;;;-0.60;99.90;;;;;;5032054;28;20828;-74
2022/04/02 03:18:37;;;;;;;11.37;7.67;;;-0.60;99.90;;;;;;5031717;28;20904;-73
2022/04/02 03:21:05;;;;;;;12.73;7.70;;;-0.60;99.90;;;;;;5032376;28;20608;-73
2022/04/02 03:23:32;;;;;;;13.13;8.60;;;-0.60;99.90;;;;;;5031955;28;20487;-73
2022/04/02 03:25:58;;;;;;;14.90;8.50;;;-0.60;99.90;;;;;;5032263;28;20458;-73
2022/04/02 03:28:25;;;;;;;12.00;8.37;;;-0.60;99.90;;;;;;5031716;28;20888;-73
2022/04/02 03:30:51;;;;;;;13.50;8.67;;;-0.60;99.90;;;;;;5031811;28;20449;-73
2022/04/02 03:33:20;;;;;;;14.27;8.77;;;-0.70;99.90;;;;;;5032520;28;20445;-73
2022/04/02 03:35:47;;;;;;;12.57;7.70;;;-0.70;99.90;;;;;;5032363;28;20456;-73
2022/04/02 03:38:15;;;;;;;9.80;7.43;;;-0.70;99.90;;;;;;5030489;28;20539;-75
2022/04/02 03:40:42;;;;;;;13.57;8.13;;;-0.70;99.90;;;;;;5032047;28;20535;-74
2022/04/02 03:43:09;;;;;;;17.90;7.10;;;-0.70;99.90;;;;;;5031899;28;20449;-73
2022/04/02 03:45:36;;;;;;;11.70;7.60;;;-0.70;99.90;;;;;;5032024;28;20503;-73
2022/04/02 03:48:02;;;;;;;17.50;7.83;;;-0.70;99.90;;;;;;5031524;28;20469;-74
2022/04/02 03:50:29;;;;;;;8.70;7.50;;;-0.60;99.90;;;;;;5032117;28;20449;-74
2022/04/02 03:52:56;;;;;;;10.10;7.60;;;-0.80;99.90;;;;;;5031651;28;20507;-73
2022/04/02 03:55:24;;;;;;;14.17;7.60;;;-0.80;99.90;;;;;;5031292;28;20961;-74
2022/04/02 03:57:52;;;;;;;11.57;8.00;;;-0.70;99.90;;;;;;5032011;28;20561;-74
2022/04/02 04:00:19;;;;;;;10.57;8.00;;;-0.70;99.90;;;;;;5032014;28;20500;-73
2022/04/02 04:02:46;;;;;;;10.17;7.60;;;-0.70;99.90;;;;;;5031835;28;21018;-73
2022/04/02 04:05:13;;;;;;;10.30;7.57;;;-0.70;99.90;;;;;;5031337;28;20544;-74
2022/04/02 04:07:41;;;;;;;12.43;8.00;;;-0.60;99.90;;;;;;5031299;28;20535;-73
2022/04/02 04:10:08;;;;;;;11.57;7.10;;;-0.70;99.90;;;;;;5030475;28;20454;-74
2022/04/02 04:12:36;;;;;;;12.10;7.90;;;-0.70;99.90;;;;;;5031391;28;20831;-73
2022/04/02 04:15:03;;;;;;;11.50;7.87;;;-0.70;99.90;;;;;;5030808;28;20453;-73
2022/04/02 04:17:30;;;;;;;14.17;8.00;;;-0.70;99.90;;;;;;5030344;28;20477;-73
2022/04/02 04:19:57;;;;;;;10.87;7.50;;;-0.70;99.90;;;;;;5028976;28;20581;-73
2022/04/02 04:22:23;;;;;;;11.43;8.07;;;-0.60;99.90;;;;;;5030553;28;20450;-74
2022/04/02 04:24:50;;;;;;;11.33;7.13;;;-0.70;99.90;;;;;;5031440;28;21020;-74
2022/04/02 04:27:17;;;;;;;18.93;8.07;;;-0.70;99.90;;;;;;5030588;28;20945;-75
2022/04/02 04:29:45;;;;;;;12.07;8.00;;;-0.70;99.90;;;;;;5031616;28;20453;-73
2022/04/02 04:32:12;;;;;;;11.80;7.50;;;-0.60;99.90;;;;;;5030699;28;20468;-74
2022/04/02 04:34:39;;;;;;;9.73;7.17;;;-0.60;99.90;;;;;;5031749;28;20449;-74
2022/04/02 04:37:06;;;;;;;11.60;7.87;;;-0.50;99.90;;;;;;5030667;28;20511;-74
2022/04/02 04:39:33;;;;;;;8.77;7.23;;;-0.70;99.90;;;;;;5031174;28;20599;-73
2022/04/02 04:41:59;;;;;;;11.30;7.97;;;-0.90;99.90;;;;;;5030529;28;20481;-75
2022/04/02 04:44:26;;;;;;;15.93;7.70;;;-0.60;99.90;;;;;;5028089;28;20450;-74
2022/04/02 04:46:54;;;;;;;9.73;7.00;;;-0.70;99.90;;;;;;5030476;28;20450;-74
2022/04/02 04:49:21;;;;;;;12.90;7.27;;;-0.70;99.90;;;;;;5030722;28;20488;-73
2022/04/02 04:51:47;;;;;;;12.77;8.47;;;-0.60;99.90;;;;;;5030914;28;20449;-73
2022/04/02 04:54:14;;;;;;;10.40;7.70;;;-0.70;99.90;;;;;;5030226;28;20981;-75
2022/04/02 04:56:41;;;;;;;9.43;7.47;;;-0.70;99.90;;;;;;5030726;28;20551;-74
2022/04/02 04:59:09;;;;;;;13.40;7.20;;;-0.70;99.90;;;;;;5030321;28;20539;-73
2022/04/02 05:01:35;;;;;;;12.13;8.87;;;-0.70;99.90;;;;;;5030615;28;20569;-74
2022/04/02 05:04:05;;;;;;;10.80;8.50;;;-0.70;99.90;;;;;;5029636;28;20485;-73
2022/04/02 05:06:32;;;;;;;11.70;7.60;;;-0.70;99.90;;;;;;5030271;28;20544;-74
2022/04/02 05:08:59;;;;;;;14.57;8.20;;;-0.70;99.90;;;;;;5030200;28;21055;-75
2022/04/02 05:11:27;;;;;;;10.33;8.50;;;-0.80;99.90;;;;;;5034109;28;20442;-73
2022/04/02 05:13:54;;;;;;;16.53;8.70;;;-0.80;99.90;;;;;;5026383;28;20869;-73
2022/04/02 05:16:21;;;;;;;12.97;8.70;;;-0.80;99.90;;;;;;5030019;28;20453;-72
2022/04/02 05:18:48;;;;;;;9.47;7.50;;;-0.80;99.90;;;;;;5029715;28;20477;-75
2022/04/02 05:21:16;;;;;;;13.93;9.10;;;-0.80;99.90;;;;;;5029748;28;20615;-74
2022/04/02 05:23:43;;;;;;;12.50;7.77;;;-0.70;99.90;;;;;;5029566;28;20445;-75
2022/04/02 05:26:09;;;;;;;14.03;9.00;;;-0.70;99.90;;;;;;5029514;28;20952;-74
2022/04/02 05:28:36;;;;;;;12.23;8.83;;;-0.70;99.90;;;;;;5029807;28;20473;-76
2022/04/02 05:31:03;;;;;;;14.70;9.00;;;-0.70;99.90;;;;;;5029792;28;20862;-75
2022/04/02 05:33:30;;;;;;;11.27;8.40;;;-0.70;99.90;;;;;;5029950;28;20457;-75
2022/04/02 05:35:57;;;;;;;12.63;8.37;;;-0.70;99.90;;;;;;5029747;28;20480;-76
2022/04/02 05:38:25;;;;;;;13.03;9.00;;;-0.70;99.90;;;;;;5029978;28;20576;-75
2022/04/02 05:40:52;;;;;;;20.67;8.50;;;-0.70;99.90;;;;;;5029780;28;20500;-75
2022/04/02 05:43:18;;;;;;;11.63;8.17;;;-0.70;99.90;;;;;;5029555;28;20519;-75
2022/04/02 05:45:46;;;;;;;10.50;7.10;;;-0.60;99.90;;;;;;5029490;28;20445;-78
2022/04/02 05:48:14;;;;;;;10.60;7.43;;;-0.60;99.90;;;;;;5029530;28;20485;-75
2022/04/02 05:50:42;;;;;;;11.90;7.60;;;-0.60;99.90;;;;;;5030171;28;20508;-75
2022/04/02 05:53:09;;;;;;;11.57;7.63;;;-0.60;99.90;;;;;;5029262;28;20453;-75
2022/04/02 05:55:37;;;;;;;13.00;8.00;;;-0.60;99.90;;;;;;5029973;28;20484;-75
2022/04/02 05:58:04;;;;;;;17.33;7.57;;;-0.50;99.90;;;;;;5029311;28;20812;-75
2022/04/02 06:00:31;;;;;;;11.93;7.60;;;-0.60;99.90;;;;;;5023324;28;20521;-75
2022/04/02 06:02:57;;;;;;;11.30;7.10;;;-0.60;99.90;;;;;;5028957;28;20460;-75
2022/04/02 06:05:24;;;;;;;11.03;6.70;;;-0.60;99.90;;;;;;5029630;28;20454;-75
2022/04/02 06:07:51;;;;;;;9.37;7.00;;;-0.50;99.90;;;;;;5029297;28;20507;-76
2022/04/02 06:10:17;;;;;;;12.60;7.70;;;-0.50;99.90;;;;;;5029193;28;20453;-75
2022/04/02 06:12:47;;;;;;;18.20;7.60;;;-0.40;99.90;;;;;;5029816;28;20449;-76
2022/04/02 06:15:13;;;;;;;11.97;7.20;;;-0.40;99.90;;;;;;5029489;28;20465;-76
2022/04/02 06:17:40;;;;;;;14.30;7.50;;;-0.40;99.90;;;;;;5029627;28;20469;-76
2022/04/02 06:20:08;;;;;;;12.20;8.60;;;-0.30;99.90;;;;;;5029278;28;20511;-76
2022/04/02 06:22:35;;;;;;;11.07;7.57;;;-0.30;99.90;;;;;;5029846;28;20481;-76
2022/04/02 06:25:03;;;;;;;10.13;7.30;;;-0.30;99.90;;;;;;5028123;28;20449;-75
2022/04/02 06:27:30;;;;;;;12.63;7.37;;;-0.20;99.90;;;;;;5029094;28;20469;-76
2022/04/02 06:29:58;;;;;;;10.03;7.73;;;-0.20;99.90;;;;;;5029030;28;20457;-76
2022/04/02 06:32:25;;;;;;;11.00;8.57;;;-0.20;99.90;;;;;;5029627;28;20445;-76
2022/04/02 06:34:52;;;;;;;11.57;8.53;;;-0.10;99.90;;;;;;5029240;28;20461;-76
2022/04/02 06:37:19;;;;;;;13.30;8.20;;;-0.10;99.90;;;;;;5028407;28;20445;-76
2022/04/02 06:39:45;;;;;;;11.27;8.37;;;-0.10;99.90;;;;;;5028308;28;20453;-77
2022/04/02 06:42:12;;;;;;;14.20;7.40;;;0.00;99.90;;;;;;5029424;28;20558;-76
2022/04/02 06:44:39;;;;;;;10.37;7.90;;;0.00;99.90;;;;;;5030793;28;20453;-76
2022/04/02 06:47:07;;;;;;;10.53;7.50;;;0.10;99.90;;;;;;5032857;28;20523;-76
2022/04/02 06:49:34;;;;;;;10.27;7.27;;;0.10;99.90;;;;;;5032855;28;20469;-77
2022/04/02 06:52:00;;;;;;;9.80;7.10;;;0.20;99.90;;;;;;5032298;28;20506;-77
2022/04/02 06:54:27;;;;;;;13.13;7.60;;;0.30;99.90;;;;;;5033136;28;20457;-77
2022/04/02 06:56:55;;;;;;;12.00;6.70;;;0.30;99.90;;;;;;5031990;28;20456;-77
2022/04/02 06:59:22;;;;;;;9.47;7.60;;;0.40;99.90;;;;;;5032284;28;20475;-77
2022/04/02 07:01:49;;;;;;;9.50;6.70;;;0.50;99.90;;;;;;5032086;28;20469;-76
2022/04/02 07:04:17;;;;;;;12.67;7.30;;;0.50;99.90;;;;;;5031480;28;20867;-77
2022/04/02 07:06:45;;;;;;;8.13;6.40;;;0.60;99.90;;;;;;5032394;28;20847;-77
2022/04/02 07:09:12;;;;;;;13.23;6.50;;;0.60;99.90;;;;;;5032780;28;20849;-77
2022/04/02 07:11:39;;;;;;;9.50;6.40;;;0.70;99.90;;;;;;5032058;28;20938;-77
2022/04/02 07:14:06;;;;;;;8.10;6.00;;;0.80;99.90;;;;;;5031921;28;20471;-76
2022/04/02 07:16:32;;;;;;;9.27;6.70;;;0.90;99.90;;;;;;5031757;28;20865;-76
2022/04/02 07:19:01;;;;;;;10.73;6.20;;;1.00;99.90;;;;;;5032447;28;20835;-78
2022/04/02 07:21:30;;;;;;;8.20;5.80;;;1.10;99.90;;;;;;5031582;28;21038;-76
2022/04/02 07:23:57;;;;;;;8.50;6.07;;;1.20;99.90;;;;;;5031813;28;20538;-77
2022/04/02 07:26:24;;;;;;;8.30;5.67;;;1.20;99.90;;;;;;5032061;28;20450;-77
2022/04/02 07:28:52;;;;;;;7.20;5.20;;;1.20;99.90;;;;;;5031975;28;21013;-77
2022/04/02 07:31:19;;;;;;;6.90;5.13;;;1.20;99.90;;;;;;5031382;28;20519;-76
2022/04/02 07:33:46;;;;;;;7.43;5.30;;;1.40;99.90;;;;;;5031414;28;20884;-77
2022/04/02 07:36:21;;;;;;;7.30;5.13;;;1.30;99.90;;;;;;5032370;28;20823;-77
2022/04/02 07:38:59;;;;;;;13.40;5.50;;;1.30;99.90;;;;;;5031543;28;20465;-76
2022/04/02 07:41:32;;;;;;;7.10;4.50;;;1.40;99.90;;;;;;5032037;28;21001;-76
2022/04/02 07:44:03;;;;;;;8.50;6.00;;;1.50;99.90;;;;;;5031902;28;20519;-76
2022/04/02 07:46:31;;;;;;;9.83;4.67;;;1.60;99.90;;;;;;5030858;28;20500;-78
2022/04/02 07:48:59;;;;;;;5.87;4.40;;;1.60;99.90;;;;;;5031728;28;20508;-77
2022/04/02 07:51:28;;;;;;;6.00;4.03;;;1.60;99.90;;;;;;5032146;28;20457;-77
2022/04/02 07:54:00;;;;;;;8.40;4.03;;;1.60;99.90;;;;;;5031704;28;20453;-77
2022/04/02 07:56:28;;;;;;;7.83;4.80;;;1.70;99.90;;;;;;5030688;28;21168;-77
2022/04/02 07:59:00;;;;;;;6.80;4.47;;;1.70;99.90;;;;;;5031737;28;20527;-77
2022/04/02 08:01:28;;;;;;;7.67;4.27;;;1.70;99.90;;;;;;5031258;28;20560;-78
2022/04/02 08:03:56;;;;;;;10.30;6.50;;;1.90;99.90;;;;;;5030211;28;20460;-77
2022/04/02 08:06:23;;;;;;;21.03;4.50;;;2.30;99.90;;;;;;5030680;28;20503;-77
2022/04/02 08:08:51;;;;;;;7.90;4.70;;;2.50;99.90;;;;;;5031907;28;20973;-78
2022/04/02 08:11:20;;;;;;;9.33;3.97;;;2.60;99.90;;;;;;5031041;28;20453;-77
2022/04/02 08:13:47;;;;;;;4.60;3.90;;;2.60;99.90;;;;;;5031612;28;20453;-78
2022/04/02 08:16:14;;;;;;;7.47;4.83;;;2.50;99.90;;;;;;5030626;28;20953;-78
2022/04/02 08:18:42;;;;;;;4.17;3.77;;;2.60;99.90;;;;;;5031920;28;20534;-77
2022/04/02 08:21:09;;;;;;;5.37;4.07;;;2.80;99.90;;;;;;5029745;28;20469;-77
2022/04/02 08:23:35;;;;;;;6.23;4.40;;;3.00;99.90;;;;;;5031483;28;20453;-76
2022/04/02 08:26:18;;;;;;;8.73;4.27;;;3.00;99.90;;;;;;5031293;28;20458;-77
2022/04/02 08:29:03;;;;;;;6.20;4.17;;;2.90;99.90;;;;;;5031179;28;20473;-77
2022/04/02 08:31:40;;;;;;;8.30;4.10;;;2.70;99.90;;;;;;5031416;28;20495;-77
2022/04/02 08:34:17;;;;;;;8.00;4.77;;;2.40;99.90;;;;;;5031291;28;20457;-77
2022/04/02 08:36:53;;;;;;;7.17;4.47;;;2.50;99.90;;;;;;5030248;28;20507;-76
2022/04/02 08:39:30;;;;;;;9.23;5.30;;;2.50;99.90;;;;;;5030701;28;20985;-76
2022/04/02 08:42:33;;;;;;;5.00;4.60;;;2.40;99.90;;;;;;5030561;28;20489;-76
2022/04/02 08:45:09;;;;;;;8.87;4.90;;;2.40;99.90;;;;;;5026618;28;20518;-76
2022/04/02 08:48:22;;;;;;;6.63;5.10;;;2.40;99.90;;;;;;5030314;28;20469;-76
2022/04/02 08:50:50;;;;;;;5.40;4.73;;;2.30;99.90;;;;;;5027182;28;20481;-76
2022/04/02 08:53:21;;;;;;;6.37;4.90;;;2.20;99.90;;;;;;5029457;28;20449;-76
2022/04/02 08:55:58;;;;;;;6.67;5.17;;;2.30;99.90;;;;;;5030703;28;20462;-76
2022/04/02 08:58:34;;;;;;;5.83;4.67;;;2.20;99.90;;;;;;5030035;28;20527;-76
2022/04/02 09:01:08;;;;;;;5.30;4.80;;;2.20;99.90;;;;;;5030955;28;20461;-75
2022/04/02 09:04:13;;;;;;;7.77;5.70;;;2.10;99.90;;;;;;5030794;28;20457;-76
2022/04/02 09:07:24;;;;;;;8.37;5.70;;;2.00;99.90;;;;;;5026197;28;20503;-76
2022/04/02 09:10:29;;;;;;;5.40;4.70;;;2.00;99.90;;;;;;5025246;28;20453;-75
2022/04/02 09:13:37;;;;;;;7.63;5.47;;;2.10;99.90;;;;;;4948115;29;20509;-76
2022/04/02 09:16:06;;;;;;;10.20;6.00;;;2.30;99.90;;;;;;4999918;28;20460;-77
2022/04/02 09:18:39;;;;;;;10.03;6.00;;;2.20;99.90;;;;;;5022573;28;20477;-77
2022/04/02 09:21:29;;;;;;;10.40;5.20;;;2.10;99.90;;;;;;5030568;28;20531;-77
2022/04/02 09:24:04;;;;;;;7.73;5.70;;;2.20;99.90;;;;;;5028615;28;20962;-77
2022/04/02 09:27:05;;;;;;;8.53;4.90;;;2.20;99.90;;;;;;5027894;28;20508;-77
2022/04/02 09:29:43;;;;;;;6.90;5.53;;;2.20;99.90;;;;;;5029045;28;20468;-76
2022/04/02 09:32:47;;;;;;;7.93;5.90;;;2.20;99.90;;;;;;5027357;28;20442;-77
2022/04/02 09:35:38;;;;;;;5.53;5.03;;;2.30;99.90;;;;;;5026792;28;20453;-77
2022/04/02 09:38:34;;;;;;;7.03;6.17;;;2.40;99.90;;;;;;5025382;28;20843;-77
2022/04/02 09:41:09;;;;;;;8.97;5.67;;;2.40;99.90;;;;;;5026097;28;21006;-77
2022/04/02 09:43:41;;;;;;;9.57;5.67;;;2.60;99.90;;;;;;5028497;28;20542;-76
2022/04/02 09:46:24;;;;;;;7.90;5.67;;;2.70;99.90;;;;;;5029665;28;20457;-76
2022/04/02 09:49:00;;;;;;;8.63;5.70;;;2.90;99.90;;;;;;5024366;28;20468;-76
2022/04/02 09:51:32;;;;;;;5.87;5.33;;;3.00;99.90;;;;;;5030363;28;20492;-76
2022/04/02 09:54:04;;;;;;;10.17;6.30;;;2.90;99.90;;;;;;5029552;28;20456;-76
2022/04/02 09:56:36;;;;;;;7.20;6.00;;;2.90;99.90;;;;;;5028983;28;20441;-76
2022/04/02 09:59:09;;;;;;;9.73;5.93;;;3.00;99.90;;;;;;5026029;28;20556;-76
2022/04/02 10:01:39;;;;;;;7.23;5.70;;;2.80;99.90;;;;;;5028833;28;20561;-76
2022/04/02 10:04:29;;;;;;;9.90;6.00;;;2.90;99.90;;;;;;5036067;28;20557;-75
2022/04/02 10:06:58;;;;;;;10.70;5.40;;;3.00;99.90;;;;;;5028292;28;20869;-75
2022/04/02 10:09:31;;;;;;;7.10;5.60;;;3.00;99.90;;;;;;5027384;28;20485;-75
2022/04/02 10:11:59;;;;;;;9.33;5.67;;;3.10;99.90;;;;;;5028828;28;20962;-75
2022/04/02 10:14:28;;;;;;;6.03;5.07;;;3.10;99.90;;;;;;5028349;28;20481;-75
2022/04/02 10:16:56;;;;;;;23.33;6.33;;;2.90;99.90;;;;;;5029029;28;20548;-74
2022/04/02 10:19:28;;;;;;;8.53;5.33;;;4.40;99.90;;;;;;5029897;28;20616;-75
2022/04/02 10:21:58;;;;;;;5.70;4.80;;;6.00;99.90;;;;;;5034468;28;20517;-75
2022/04/02 10:24:26;;;;;;;5.43;4.40;;;6.80;99.90;;;;;;5035550;28;20453;-80
2022/04/02 10:26:56;;;;;;;7.07;5.33;;;6.70;99.90;;;;;;5046299;28;20195;-79
2022/04/02 10:29:42;;;;;;;8.70;4.83;;;5.70;99.90;;;;;;5046334;28;20473;-79
2022/04/02 10:32:32;;;;;;;7.73;4.97;;;5.30;99.90;;;;;;5043159;28;20453;-79
2022/04/02 10:35:05;;;;;;;7.40;5.03;;;4.70;99.90;;;;;;5040976;28;20453;-79
2022/04/02 10:37:39;;;;;;;9.13;5.77;;;4.50;99.90;;;;;;5039967;28;20473;-79
2022/04/02 10:40:08;;;;;;;5.60;4.83;;;4.40;99.90;;;;;;5038230;28;20984;-79
2022/04/02 10:42:37;;;;;;;14.80;5.80;;;4.20;99.90;;;;;;5037612;28;20572;-80
2022/04/02 10:45:06;;;;;;;6.53;4.47;;;3.80;99.90;;;;;;5037735;28;20461;-80
2022/04/02 10:47:38;;;;;;;10.00;5.37;;;3.50;99.90;;;;;;5038005;28;20461;-79
2022/04/02 10:50:08;;;;;;;5.13;4.73;;;3.50;99.90;;;;;;5038466;28;20453;-79
2022/04/02 10:52:36;;;;;;;9.80;5.47;;;3.50;99.90;;;;;;5042516;28;20461;-80
2022/04/02 10:55:04;;;;;;;8.97;5.47;;;3.60;99.90;;;;;;5043721;28;20485;-81
2022/04/02 10:57:34;;;;;;;6.40;4.60;;;3.60;99.90;;;;;;5040602;28;20500;-80
2022/04/02 11:00:02;;;;;;;7.00;4.90;;;3.60;99.90;;;;;;5042063;28;20461;-79
2022/04/02 11:02:39;;;;;;;7.10;4.67;;;3.70;99.90;;;;;;5039649;28;20599;-79
2022/04/02 11:05:10;;;;;;;5.70;5.20;;;3.70;99.90;;;;;;5038881;28;20901;-79
2022/04/02 11:07:43;;;;;;;7.67;4.90;;;3.90;99.90;;;;;;5036208;28;20476;-80
2022/04/02 11:10:13;;;;;;;6.90;4.70;;;4.00;99.90;;;;;;5034441;28;20457;-77
2022/04/02 11:12:44;;;;;;;5.97;4.43;;;4.00;99.90;;;;;;5032863;28;20452;-77
2022/04/02 11:15:13;;;;;;;5.80;4.43;;;4.20;99.90;;;;;;5033801;28;20946;-78
2022/04/02 11:17:41;;;;;;;7.53;4.80;;;4.20;99.90;;;;;;5032677;28;21055;-76
2022/04/02 11:20:13;;;;;;;6.27;4.60;;;4.30;99.90;;;;;;5032325;28;20623;-77
2022/04/02 11:22:57;;;;;;;5.43;4.37;;;4.20;99.90;;;;;;5024646;28;20523;-76
2022/04/02 11:25:25;;;;;;;8.47;4.60;;;4.10;99.90;;;;;;5032256;28;20544;-76
2022/04/02 11:27:55;;;;;;;6.20;4.77;;;4.10;99.90;;;;;;5029483;28;20473;-76
2022/04/02 11:30:23;;;;;;;7.50;4.73;;;4.00;99.90;;;;;;5030803;28;20449;-76
2022/04/02 11:32:50;;;;;;;6.40;4.77;;;3.90;99.90;;;;;;5032036;28;20450;-74
2022/04/02 11:35:23;;;;;;;7.57;5.03;;;4.30;99.90;;;;;;5032193;28;20808;-74
2022/04/02 11:38:03;;;;;;;6.33;4.40;;;4.40;99.90;;;;;;5031141;28;20477;-74
2022/04/02 11:40:31;;;;;;;5.80;4.40;;;4.30;99.90;;;;;;5028812;28;20586;-76
2022/04/02 11:43:01;;;;;;;6.20;4.28;;;4.40;99.90;;;;;;5030983;28;20509;-77
2022/04/02 11:45:29;;;;;;;6.20;4.83;;;4.90;99.90;;;;;;5030468;28;20238;-77
2022/04/02 11:48:01;;;;;;;7.70;4.80;;;5.10;99.90;;;;;;5026259;28;20481;-76
2022/04/02 11:50:31;;;;;;;10.03;4.90;;;5.30;99.90;;;;;;5031937;28;21059;-76
2022/04/02 11:52:59;;;;;;;6.17;4.50;;;5.20;99.90;;;;;;5031717;28;20500;-75
2022/04/02 11:55:28;;;;;;;5.90;4.47;;;5.30;99.90;;;;;;5031529;28;20458;-75
2022/04/02 11:58:00;;;;;;;4.30;3.90;;;5.40;99.90;;;;;;5029277;28;21009;-75
2022/04/02 12:00:27;;;;;;;9.67;4.40;;;5.50;99.90;;;;;;5030851;28;20446;-76
2022/04/02 12:02:54;;;;;;;7.23;4.37;;;5.40;99.90;;;;;;5031837;28;20559;-75
2022/04/02 12:05:21;;;;;;;6.60;4.37;;;5.40;99.90;;;;;;5031485;28;20468;-75
2022/04/02 12:07:51;;;;;;;6.93;4.10;;;5.10;99.90;;;;;;5031410;28;20476;-75
2022/04/02 12:10:19;;;;;;;5.63;4.20;;;4.90;99.90;;;;;;5031443;28;20452;-78
2022/04/02 12:12:47;;;;;;;8.55;4.40;;;5.10;99.90;;;;;;5029504;28;20449;-75
2022/04/02 12:15:15;;;;;;;4.70;4.30;;;5.30;99.90;;;;;;5030992;28;20203;-75
2022/04/02 12:17:46;;;;;;;6.93;4.50;;;5.20;99.90;;;;;;5031353;28;20469;-78
2022/04/02 12:20:16;;;;;;;8.33;4.63;;;5.20;99.90;;;;;;5031210;28;20453;-76
2022/04/02 12:22:46;;;;;;;6.70;5.20;;;5.20;99.90;;;;;;5031212;28;20477;-76
2022/04/02 12:25:20;;;;;;;8.43;4.87;;;5.00;99.90;;;;;;5029929;28;20453;-75
2022/04/02 12:27:50;;;;;;;4.80;4.40;;;4.80;99.90;;;;;;5030865;28;20476;-75
2022/04/02 12:30:21;;;;;;;9.07;4.10;;;4.60;99.90;;;;;;5030620;28;20511;-76
2022/04/02 12:32:48;;;;;;;14.47;4.40;;;4.60;99.90;;;;;;5030853;28;20449;-74
2022/04/02 12:35:24;;;;;;;8.33;4.73;;;4.80;99.90;;;;;;5029591;28;20961;-73
2022/04/02 12:37:52;;;;;;;3.90;3.60;;;5.10;99.90;;;;;;5029757;28;20581;-73
2022/04/02 12:40:23;;;;;;;9.03;4.40;;;4.90;99.90;;;;;;5030631;28;20457;-76
2022/04/02 12:42:51;;;;;;;7.00;5.00;;;4.70;99.90;;;;;;5030117;28;20481;-75
2022/04/02 12:45:20;;;;;;;7.70;4.67;;;4.30;99.90;;;;;;5029675;28;20522;-76
2022/04/02 12:48:01;;;;;;;6.73;4.80;;;4.40;99.90;;;;;;5030831;28;20484;-75
2022/04/02 12:50:29;;;;;;;8.27;5.17;;;4.40;99.90;;;;;;5030045;28;20457;-75
2022/04/02 12:52:56;;;;;;;5.80;4.40;;;4.50;99.90;;;;;;5030802;28;21031;-76
2022/04/02 12:55:26;;;;;;;6.73;3.93;;;4.30;99.90;;;;;;5030289;28;20527;-76
2022/04/02 12:58:03;;;;;;;8.73;5.07;;;4.20;99.90;;;;;;5030283;28;20473;-75
2022/04/02 13:00:31;;;;;;;9.50;4.60;;;4.30;99.90;;;;;;5030101;28;20487;-75
2022/04/02 13:03:01;;;;;;;8.23;5.20;;;4.30;99.90;;;;;;5030385;28;20535;-76
2022/04/02 13:05:44;;;;;;;6.70;4.23;;;4.30;99.90;;;;;;5029809;28;20536;-75